sensor_id;sensor_type;location;lat;lon;timestamp;temperature;humidity
22491;DHT22;11412;50.802;4.350;2023-02-21T00:00:23;8.10;99.90
22491;DHT22;11412;50.802;4.350;2023-02-21T00:03:07;8.40;99.90
22491;DHT22;11412;50.802;4.350;2023-02-21T00:05:52;8.30;99.90
22491;DHT22;11412;50.802;4.350;2023-02-21T00:08:37;8.20;99.90
22491;DHT22;11412;50.802;4.350;2023-02-21T00:11:21;8.60;99.90
22491;DHT22;11412;50.802;4.350;2023-02-21T00:14:05;8.40;99.90
22491;DHT22;11412;50.802;4.350;2023-02-21T00:16:49;8.20;99.90
22491;DHT22;11412;50.802;4.350;2023-02-21T00:19:33;8.20;99.90
22491;DHT22;11412;50.802;4.350;2023-02-21T00:22:17;8.20;99.90
22491;DHT22;11412;50.802;4.350;2023-02-21T00:25:01;8.30;99.90
22491;DHT22;11412;50.802;4.350;2023-02-21T00:27:45;8.30;99.90
22491;DHT22;11412;50.802;4.350;2023-02-21T00:30:30;8.30;99.90
22491;DHT22;11412;50.802;4.350;2023-02-21T00:33:14;8.20;99.90
22491;DHT22;11412;50.802;4.350;2023-02-21T00:35:58;8.10;99.90
22491;DHT22;11412;50.802;4.350;2023-02-21T00:38:42;8.30;99.90
22491;DHT22;11412;50.802;4.350;2023-02-21T00:41:26;8.40;99.90
22491;DHT22;11412;50.802;4.350;2023-02-21T00:44:10;8.70;99.90
22491;DHT22;11412;50.802;4.350;2023-02-21T00:46:54;8.60;99.90
22491;DHT22;11412;50.802;4.350;2023-02-21T00:49:39;8.40;99.90
22491;DHT22;11412;50.802;4.350;2023-02-21T00:52:23;8.60;99.90
22491;DHT22;11412;50.802;4.350;2023-02-21T00:55:07;8.70;99.90
22491;DHT22;11412;50.802;4.350;2023-02-21T00:57:51;8.20;99.90
22491;DHT22;11412;50.802;4.350;2023-02-21T01:00:35;8.20;99.90
22491;DHT22;11412;50.802;4.350;2023-02-21T01:03:19;8.30;99.90
22491;DHT22;11412;50.802;4.350;2023-02-21T01:06:08;8.60;99.90
22491;DHT22;11412;50.802;4.350;2023-02-21T01:08:52;8.60;99.90
22491;DHT22;11412;50.802;4.350;2023-02-21T01:11:36;8.40;99.90
22491;DHT22;11412;50.802;4.350;2023-02-21T01:14:21;8.40;99.90
22491;DHT22;11412;50.802;4.350;2023-02-21T01:17:05;7.90;99.90
22491;DHT22;11412;50.802;4.350;2023-02-21T01:19:49;8.00;99.90
22491;DHT22;11412;50.802;4.350;2023-02-21T01:22:33;8.50;99.90
22491;DHT22;11412;50.802;4.350;2023-02-21T01:25:17;8.40;99.90
22491;DHT22;11412;50.802;4.350;2023-02-21T01:28:02;8.30;99.90
22491;DHT22;11412;50.802;4.350;2023-02-21T01:30:46;8.10;99.90
22491;DHT22;11412;50.802;4.350;2023-02-21T01:33:35;8.00;99.90
22491;DHT22;11412;50.802;4.350;2023-02-21T01:36:20;7.80;99.90
22491;DHT22;11412;50.802;4.350;2023-02-21T01:39:04;7.70;99.90
22491;DHT22;11412;50.802;4.350;2023-02-21T01:41:48;7.90;99.90
22491;DHT22;11412;50.802;4.350;2023-02-21T01:44:42;7.60;99.90
22491;DHT22;11412;50.802;4.350;2023-02-21T01:47:28;7.60;99.90
22491;DHT22;11412;50.802;4.350;2023-02-21T01:50:25;7.80;99.90
22491;DHT22;11412;50.802;4.350;2023-02-21T01:53:14;7.70;99.90
22491;DHT22;11412;50.802;4.350;2023-02-21T01:56:00;7.80;99.90
22491;DHT22;11412;50.802;4.350;2023-02-21T01:58:46;7.70;99.90
22491;DHT22;11412;50.802;4.350;2023-02-21T02:01:40;8.00;99.90
22491;DHT22;11412;50.802;4.350;2023-02-21T02:04:25;7.90;99.90
22491;DHT22;11412;50.802;4.350;2023-02-21T02:07:10;8.00;99.90
22491;DHT22;11412;50.802;4.350;2023-02-21T02:09:55;8.20;99.90
22491;DHT22;11412;50.802;4.350;2023-02-21T02:13:06;8.20;99.90
22491;DHT22;11412;50.802;4.350;2023-02-21T02:21:55;8.20;99.90
22491;DHT22;11412;50.802;4.350;2023-02-21T02:24:04;8.20;99.90
22491;DHT22;11412;50.802;4.350;2023-02-21T02:32:50;7.90;99.90
22491;DHT22;11412;50.802;4.350;2023-02-21T02:38:02;8.00;99.90
22491;DHT22;11412;50.802;4.350;2023-02-21T02:40:59;7.90;99.90
22491;DHT22;11412;50.802;4.350;2023-02-21T02:43:40;7.70;99.90
22491;DHT22;11412;50.802;4.350;2023-02-21T02:46:19;7.70;99.90
22491;DHT22;11412;50.802;4.350;2023-02-21T02:49:07;7.80;99.90
22491;DHT22;11412;50.802;4.350;2023-02-21T02:51:34;7.60;99.90
22491;DHT22;11412;50.802;4.350;2023-02-21T02:54:01;7.60;99.90
22491;DHT22;11412;50.802;4.350;2023-02-21T02:56:26;7.60;99.90
22491;DHT22;11412;50.802;4.350;2023-02-21T02:58:59;7.70;99.90
22491;DHT22;11412;50.802;4.350;2023-02-21T03:12:43;8.00;99.90
22491;DHT22;11412;50.802;4.350;2023-02-21T03:15:25;7.90;99.90
22491;DHT22;11412;50.802;4.350;2023-02-21T03:18:12;7.80;99.90
22491;DHT22;11412;50.802;4.350;2023-02-21T03:20:39;7.80;99.90
22491;DHT22;11412;50.802;4.350;2023-02-21T03:23:07;7.60;99.90
22491;DHT22;11412;50.802;4.350;2023-02-21T03:25:36;7.70;99.90
22491;DHT22;11412;50.802;4.350;2023-02-21T03:28:03;8.00;99.90
22491;DHT22;11412;50.802;4.350;2023-02-21T03:30:30;8.20;99.90
22491;DHT22;11412;50.802;4.350;2023-02-21T03:32:56;8.00;99.90
22491;DHT22;11412;50.802;4.350;2023-02-21T03:35:23;8.00;99.90
22491;DHT22;11412;50.802;4.350;2023-02-21T03:37:53;7.90;99.90
22491;DHT22;11412;50.802;4.350;2023-02-21T03:42:51;8.10;99.90
22491;DHT22;11412;50.802;4.350;2023-02-21T03:45:16;7.90;99.90
22491;DHT22;11412;50.802;4.350;2023-02-21T03:47:42;7.90;99.90
22491;DHT22;11412;50.802;4.350;2023-02-21T03:50:08;7.90;99.90
22491;DHT22;11412;50.802;4.350;2023-02-21T03:52:34;8.00;99.90
22491;DHT22;11412;50.802;4.350;2023-02-21T03:54:59;8.10;99.90
22491;DHT22;11412;50.802;4.350;2023-02-21T03:57:26;8.30;99.90
22491;DHT22;11412;50.802;4.350;2023-02-21T03:59:51;8.40;99.90
22491;DHT22;11412;50.802;4.350;2023-02-21T04:02:18;8.10;99.90
22491;DHT22;11412;50.802;4.350;2023-02-21T04:04:44;8.10;99.90
22491;DHT22;11412;50.802;4.350;2023-02-21T04:07:10;8.30;99.90
22491;DHT22;11412;50.802;4.350;2023-02-21T04:09:36;8.20;99.90
22491;DHT22;11412;50.802;4.350;2023-02-21T04:12:03;8.20;99.90
22491;DHT22;11412;50.802;4.350;2023-02-21T04:14:29;7.90;99.90
22491;DHT22;11412;50.802;4.350;2023-02-21T04:16:55;7.70;99.90
22491;DHT22;11412;50.802;4.350;2023-02-21T04:19:21;7.80;99.90
22491;DHT22;11412;50.802;4.350;2023-02-21T04:21:47;7.90;99.90
22491;DHT22;11412;50.802;4.350;2023-02-21T04:24:12;7.90;99.90
22491;DHT22;11412;50.802;4.350;2023-02-21T04:26:38;7.70;99.90
22491;DHT22;11412;50.802;4.350;2023-02-21T04:29:04;7.70;99.90
22491;DHT22;11412;50.802;4.350;2023-02-21T04:31:29;7.70;99.90
22491;DHT22;11412;50.802;4.350;2023-02-21T04:33:57;7.70;99.90
22491;DHT22;11412;50.802;4.350;2023-02-21T04:36:23;7.70;99.90
22491;DHT22;11412;50.802;4.350;2023-02-21T04:38:49;7.70;99.90
22491;DHT22;11412;50.802;4.350;2023-02-21T04:41:15;8.00;99.90
22491;DHT22;11412;50.802;4.350;2023-02-21T04:43:42;8.20;99.90
22491;DHT22;11412;50.802;4.350;2023-02-21T04:46:08;8.20;99.90
22491;DHT22;11412;50.802;4.350;2023-02-21T04:48:34;8.00;99.90
22491;DHT22;11412;50.802;4.350;2023-02-21T04:51:00;7.90;99.90
22491;DHT22;11412;50.802;4.350;2023-02-21T04:53:25;7.70;99.90
22491;DHT22;11412;50.802;4.350;2023-02-21T04:55:51;7.60;99.90
22491;DHT22;11412;50.802;4.350;2023-02-21T04:58:17;7.50;99.90
22491;DHT22;11412;50.802;4.350;2023-02-21T05:00:42;7.60;99.90
22491;DHT22;11412;50.802;4.350;2023-02-21T05:03:09;7.50;99.90
22491;DHT22;11412;50.802;4.350;2023-02-21T05:05:35;7.60;99.90
22491;DHT22;11412;50.802;4.350;2023-02-21T05:08:01;7.40;99.90
22491;DHT22;11412;50.802;4.350;2023-02-21T05:10:26;7.80;99.90
22491;DHT22;11412;50.802;4.350;2023-02-21T05:12:52;8.00;99.90
22491;DHT22;11412;50.802;4.350;2023-02-21T05:15:17;7.70;99.90
22491;DHT22;11412;50.802;4.350;2023-02-21T05:17:43;7.70;99.90
22491;DHT22;11412;50.802;4.350;2023-02-21T05:20:10;7.40;99.90
22491;DHT22;11412;50.802;4.350;2023-02-21T05:22:38;7.70;99.90
22491;DHT22;11412;50.802;4.350;2023-02-21T05:25:06;7.80;99.90
22491;DHT22;11412;50.802;4.350;2023-02-21T05:27:33;7.90;99.90
22491;DHT22;11412;50.802;4.350;2023-02-21T05:29:59;7.90;99.90
22491;DHT22;11412;50.802;4.350;2023-02-21T05:32:24;7.80;99.90
22491;DHT22;11412;50.802;4.350;2023-02-21T05:34:54;7.90;99.90
22491;DHT22;11412;50.802;4.350;2023-02-21T05:37:19;8.40;99.90
22491;DHT22;11412;50.802;4.350;2023-02-21T05:39:47;8.40;99.90
22491;DHT22;11412;50.802;4.350;2023-02-21T05:42:13;8.60;99.90
22491;DHT22;11412;50.802;4.350;2023-02-21T05:44:38;8.40;99.90
22491;DHT22;11412;50.802;4.350;2023-02-21T05:47:04;8.10;99.90
22491;DHT22;11412;50.802;4.350;2023-02-21T05:49:32;7.90;99.90
22491;DHT22;11412;50.802;4.350;2023-02-21T05:51:57;7.70;99.90
22491;DHT22;11412;50.802;4.350;2023-02-21T05:54:23;8.00;99.90
22491;DHT22;11412;50.802;4.350;2023-02-21T05:56:51;8.10;99.90
22491;DHT22;11412;50.802;4.350;2023-02-21T05:59:19;7.80;99.90
22491;DHT22;11412;50.802;4.350;2023-02-21T06:01:46;7.80;99.90
22491;DHT22;11412;50.802;4.350;2023-02-21T06:04:12;8.10;99.90
22491;DHT22;11412;50.802;4.350;2023-02-21T06:06:37;7.90;99.90
22491;DHT22;11412;50.802;4.350;2023-02-21T06:09:04;7.80;99.90
22491;DHT22;11412;50.802;4.350;2023-02-21T06:11:32;7.70;99.90
22491;DHT22;11412;50.802;4.350;2023-02-21T06:13:59;7.70;99.90
22491;DHT22;11412;50.802;4.350;2023-02-21T06:16:26;7.90;99.90
22491;DHT22;11412;50.802;4.350;2023-02-21T06:18:54;7.70;99.90
22491;DHT22;11412;50.802;4.350;2023-02-21T06:21:20;8.10;99.90
22491;DHT22;11412;50.802;4.350;2023-02-21T06:23:47;8.40;99.90
22491;DHT22;11412;50.802;4.350;2023-02-21T06:26:13;8.50;99.90
22491;DHT22;11412;50.802;4.350;2023-02-21T06:28:39;8.30;99.90
22491;DHT22;11412;50.802;4.350;2023-02-21T06:31:05;8.30;99.90
22491;DHT22;11412;50.802;4.350;2023-02-21T06:33:30;8.20;99.90
22491;DHT22;11412;50.802;4.350;2023-02-21T06:35:56;8.20;99.90
22491;DHT22;11412;50.802;4.350;2023-02-21T06:38:22;8.10;99.90
22491;DHT22;11412;50.802;4.350;2023-02-21T06:40:48;8.00;99.90
22491;DHT22;11412;50.802;4.350;2023-02-21T06:43:13;8.00;99.90
22491;DHT22;11412;50.802;4.350;2023-02-21T06:45:39;8.20;99.90
22491;DHT22;11412;50.802;4.350;2023-02-21T06:48:05;8.20;99.90
22491;DHT22;11412;50.802;4.350;2023-02-21T06:50:32;8.10;99.90
22491;DHT22;11412;50.802;4.350;2023-02-21T06:52:58;8.00;99.90
22491;DHT22;11412;50.802;4.350;2023-02-21T06:55:24;8.20;99.90
22491;DHT22;11412;50.802;4.350;2023-02-21T06:57:50;8.00;99.90
22491;DHT22;11412;50.802;4.350;2023-02-21T07:00:16;8.20;99.90
22491;DHT22;11412;50.802;4.350;2023-02-21T07:02:42;7.90;99.90
22491;DHT22;11412;50.802;4.350;2023-02-21T07:05:09;7.70;99.90
22491;DHT22;11412;50.802;4.350;2023-02-21T07:07:35;8.00;99.90
22491;DHT22;11412;50.802;4.350;2023-02-21T07:10:01;7.80;99.90
22491;DHT22;11412;50.802;4.350;2023-02-21T07:12:27;7.60;99.90
22491;DHT22;11412;50.802;4.350;2023-02-21T07:14:53;7.40;99.90
22491;DHT22;11412;50.802;4.350;2023-02-21T07:17:19;7.40;99.90
22491;DHT22;11412;50.802;4.350;2023-02-21T07:19:44;7.30;99.90
22491;DHT22;11412;50.802;4.350;2023-02-21T07:22:10;7.20;99.90
22491;DHT22;11412;50.802;4.350;2023-02-21T07:24:36;7.60;99.90
22491;DHT22;11412;50.802;4.350;2023-02-21T07:27:02;7.80;99.90
22491;DHT22;11412;50.802;4.350;2023-02-21T07:29:28;7.60;99.90
22491;DHT22;11412;50.802;4.350;2023-02-21T07:31:53;7.80;99.90
22491;DHT22;11412;50.802;4.350;2023-02-21T07:34:19;7.80;99.90
22491;DHT22;11412;50.802;4.350;2023-02-21T07:36:46;7.70;99.90
22491;DHT22;11412;50.802;4.350;2023-02-21T07:39:12;7.90;99.90
22491;DHT22;11412;50.802;4.350;2023-02-21T07:41:37;8.00;99.90
22491;DHT22;11412;50.802;4.350;2023-02-21T07:44:03;7.80;99.90
22491;DHT22;11412;50.802;4.350;2023-02-21T07:46:29;7.90;99.90
22491;DHT22;11412;50.802;4.350;2023-02-21T07:48:55;7.80;99.90
22491;DHT22;11412;50.802;4.350;2023-02-21T07:51:21;7.50;99.90
22491;DHT22;11412;50.802;4.350;2023-02-21T07:53:47;7.50;99.90
22491;DHT22;11412;50.802;4.350;2023-02-21T07:56:12;7.60;99.90
22491;DHT22;11412;50.802;4.350;2023-02-21T07:58:38;7.40;99.90
22491;DHT22;11412;50.802;4.350;2023-02-21T08:01:04;7.20;99.90
22491;DHT22;11412;50.802;4.350;2023-02-21T08:03:30;7.10;99.90
22491;DHT22;11412;50.802;4.350;2023-02-21T08:05:57;7.20;99.90
22491;DHT22;11412;50.802;4.350;2023-02-21T08:08:23;7.20;99.90
22491;DHT22;11412;50.802;4.350;2023-02-21T08:10:49;7.40;99.90
22491;DHT22;11412;50.802;4.350;2023-02-21T08:13:14;7.40;99.90
22491;DHT22;11412;50.802;4.350;2023-02-21T08:15:40;7.40;99.90
22491;DHT22;11412;50.802;4.350;2023-02-21T08:18:06;7.40;99.90
22491;DHT22;11412;50.802;4.350;2023-02-21T08:20:31;7.40;99.90
22491;DHT22;11412;50.802;4.350;2023-02-21T08:22:57;7.30;99.90
22491;DHT22;11412;50.802;4.350;2023-02-21T08:25:23;7.40;99.90
22491;DHT22;11412;50.802;4.350;2023-02-21T08:27:48;7.40;99.90
22491;DHT22;11412;50.802;4.350;2023-02-21T08:30:18;7.30;99.90
22491;DHT22;11412;50.802;4.350;2023-02-21T08:32:44;7.40;99.90
22491;DHT22;11412;50.802;4.350;2023-02-21T08:35:17;7.40;99.90
22491;DHT22;11412;50.802;4.350;2023-02-21T08:37:45;7.20;99.90
22491;DHT22;11412;50.802;4.350;2023-02-21T08:40:12;7.30;99.90
22491;DHT22;11412;50.802;4.350;2023-02-21T08:42:39;7.40;99.90
22491;DHT22;11412;50.802;4.350;2023-02-21T08:45:05;7.90;99.90
22491;DHT22;11412;50.802;4.350;2023-02-21T08:47:33;8.30;99.90
22491;DHT22;11412;50.802;4.350;2023-02-21T08:49:59;8.20;99.90
22491;DHT22;11412;50.802;4.350;2023-02-21T08:52:26;8.10;99.90
22491;DHT22;11412;50.802;4.350;2023-02-21T08:54:51;8.10;99.90
22491;DHT22;11412;50.802;4.350;2023-02-21T08:57:17;7.70;99.90
22491;DHT22;11412;50.802;4.350;2023-02-21T08:59:43;7.50;99.90
22491;DHT22;11412;50.802;4.350;2023-02-21T09:02:21;7.40;99.90
22491;DHT22;11412;50.802;4.350;2023-02-21T09:04:50;7.40;99.90
22491;DHT22;11412;50.802;4.350;2023-02-21T09:07:17;7.40;99.90
22491;DHT22;11412;50.802;4.350;2023-02-21T09:09:44;7.60;99.90
22491;DHT22;11412;50.802;4.350;2023-02-21T09:12:10;7.80;99.90
22491;DHT22;11412;50.802;4.350;2023-02-21T09:14:38;7.60;99.90
22491;DHT22;11412;50.802;4.350;2023-02-21T09:17:05;7.50;99.90
22491;DHT22;11412;50.802;4.350;2023-02-21T09:19:31;7.90;99.90
22491;DHT22;11412;50.802;4.350;2023-02-21T09:21:57;8.10;99.90
22491;DHT22;11412;50.802;4.350;2023-02-21T09:24:25;8.30;99.90
22491;DHT22;11412;50.802;4.350;2023-02-21T09:26:55;8.30;99.90
22491;DHT22;11412;50.802;4.350;2023-02-21T09:29:24;7.80;99.90
22491;DHT22;11412;50.802;4.350;2023-02-21T09:31:51;7.70;99.90
22491;DHT22;11412;50.802;4.350;2023-02-21T09:34:17;7.80;99.90
22491;DHT22;11412;50.802;4.350;2023-02-21T09:36:43;8.10;99.90
22491;DHT22;11412;50.802;4.350;2023-02-21T09:39:09;8.00;99.90
22491;DHT22;11412;50.802;4.350;2023-02-21T09:41:36;7.80;99.90
22491;DHT22;11412;50.802;4.350;2023-02-21T09:44:03;7.50;99.90
22491;DHT22;11412;50.802;4.350;2023-02-21T09:46:37;7.70;99.90
22491;DHT22;11412;50.802;4.350;2023-02-21T09:49:06;7.80;99.90
22491;DHT22;11412;50.802;4.350;2023-02-21T09:51:36;7.90;99.90
22491;DHT22;11412;50.802;4.350;2023-02-21T09:54:16;8.00;99.90
22491;DHT22;11412;50.802;4.350;2023-02-21T09:56:43;8.00;99.90
22491;DHT22;11412;50.802;4.350;2023-02-21T09:59:13;7.90;99.90
22491;DHT22;11412;50.802;4.350;2023-02-21T10:07:01;8.20;99.90
22491;DHT22;11412;50.802;4.350;2023-02-21T10:15:24;8.20;99.90
22491;DHT22;11412;50.802;4.350;2023-02-21T10:18:13;8.30;99.90
22491;DHT22;11412;50.802;4.350;2023-02-21T10:20:46;8.10;99.90
22491;DHT22;11412;50.802;4.350;2023-02-21T10:23:28;7.80;99.90
22491;DHT22;11412;50.802;4.350;2023-02-21T10:25:58;7.80;99.90
22491;DHT22;11412;50.802;4.350;2023-02-21T10:28:27;8.00;99.90
22491;DHT22;11412;50.802;4.350;2023-02-21T10:30:58;8.10;99.90
22491;DHT22;11412;50.802;4.350;2023-02-21T10:33:25;7.90;99.90
22491;DHT22;11412;50.802;4.350;2023-02-21T10:35:50;7.70;99.90
22491;DHT22;11412;50.802;4.350;2023-02-21T10:38:22;7.70;99.90
22491;DHT22;11412;50.802;4.350;2023-02-21T10:40:56;7.80;99.90
22491;DHT22;11412;50.802;4.350;2023-02-21T10:43:33;8.10;99.90
22491;DHT22;11412;50.802;4.350;2023-02-21T10:48:51;7.90;99.90
22491;DHT22;11412;50.802;4.350;2023-02-21T10:51:32;7.90;99.90
22491;DHT22;11412;50.802;4.350;2023-02-21T10:54:18;8.00;99.90
22491;DHT22;11412;50.802;4.350;2023-02-21T10:56:47;8.30;99.90
22491;DHT22;11412;50.802;4.350;2023-02-21T10:59:31;8.40;99.90
22491;DHT22;11412;50.802;4.350;2023-02-21T11:01:58;8.20;99.90
22491;DHT22;11412;50.802;4.350;2023-02-21T11:04:31;8.20;99.90
22491;DHT22;11412;50.802;4.350;2023-02-21T11:07:06;8.20;99.90
22491;DHT22;11412;50.802;4.350;2023-02-21T11:09:39;8.20;99.90
22491;DHT22;11412;50.802;4.350;2023-02-21T11:14:45;8.60;99.90
22491;DHT22;11412;50.802;4.350;2023-02-21T11:17:27;8.40;99.90
22491;DHT22;11412;50.802;4.350;2023-02-21T11:25:02;8.60;99.90
22491;DHT22;11412;50.802;4.350;2023-02-21T11:27:32;8.50;99.90
22491;DHT22;11412;50.802;4.350;2023-02-21T11:30:00;8.50;99.90
22491;DHT22;11412;50.802;4.350;2023-02-21T11:32:33;8.40;99.90
22491;DHT22;11412;50.802;4.350;2023-02-21T11:37:56;8.60;99.90
22491;DHT22;11412;50.802;4.350;2023-02-21T11:40:24;8.60;99.90
22491;DHT22;11412;50.802;4.350;2023-02-21T11:42:50;8.40;99.90
22491;DHT22;11412;50.802;4.350;2023-02-21T11:45:29;8.60;99.90
22491;DHT22;11412;50.802;4.350;2023-02-21T11:48:04;8.60;99.90
22491;DHT22;11412;50.802;4.350;2023-02-21T11:50:36;8.50;99.90
22491;DHT22;11412;50.802;4.350;2023-02-21T11:53:23;8.70;99.90
22491;DHT22;11412;50.802;4.350;2023-02-21T12:07:32;8.90;99.90
22491;DHT22;11412;50.802;4.350;2023-02-21T12:16:19;8.80;99.90
22491;DHT22;11412;50.802;4.350;2023-02-21T12:19:10;8.80;99.90
22491;DHT22;11412;50.802;4.350;2023-02-21T12:22:00;9.00;99.90
22491;DHT22;11412;50.802;4.350;2023-02-21T12:27:36;8.90;99.90
22491;DHT22;11412;50.802;4.350;2023-02-21T12:30:49;8.90;99.90
22491;DHT22;11412;50.802;4.350;2023-02-21T12:50:22;8.80;99.90
22491;DHT22;11412;50.802;4.350;2023-02-21T12:52:59;8.80;99.90
22491;DHT22;11412;50.802;4.350;2023-02-21T12:55:38;8.80;99.90
22491;DHT22;11412;50.802;4.350;2023-02-21T13:06:28;9.10;99.90
22491;DHT22;11412;50.802;4.350;2023-02-21T13:11:47;9.20;99.90
22491;DHT22;11412;50.802;4.350;2023-02-21T13:14:22;9.30;99.90
22491;DHT22;11412;50.802;4.350;2023-02-21T13:16:51;9.40;99.90
22491;DHT22;11412;50.802;4.350;2023-02-21T13:19:18;9.50;99.90
22491;DHT22;11412;50.802;4.350;2023-02-21T13:21:58;9.60;99.90
22491;DHT22;11412;50.802;4.350;2023-02-21T13:24:54;9.60;99.90
22491;DHT22;11412;50.802;4.350;2023-02-21T13:32:55;9.40;99.90
22491;DHT22;11412;50.802;4.350;2023-02-21T13:35:35;9.30;99.90
22491;DHT22;11412;50.802;4.350;2023-02-21T13:38:05;9.20;99.90
22491;DHT22;11412;50.802;4.350;2023-02-21T13:43:26;9.30;99.90
22491;DHT22;11412;50.802;4.350;2023-02-21T13:45:53;9.20;99.90
22491;DHT22;11412;50.802;4.350;2023-02-21T13:48:24;9.50;99.90
22491;DHT22;11412;50.802;4.350;2023-02-21T13:50:56;9.40;99.90
22491;DHT22;11412;50.802;4.350;2023-02-21T13:53:26;9.50;99.90
22491;DHT22;11412;50.802;4.350;2023-02-21T13:58:44;9.20;99.90
22491;DHT22;11412;50.802;4.350;2023-02-21T14:03:42;9.30;99.90
22491;DHT22;11412;50.802;4.350;2023-02-21T14:06:27;9.20;99.90
22491;DHT22;11412;50.802;4.350;2023-02-21T14:08:58;9.30;99.90
22491;DHT22;11412;50.802;4.350;2023-02-21T14:11:34;9.30;99.90
22491;DHT22;11412;50.802;4.350;2023-02-21T14:14:27;9.20;99.90
22491;DHT22;11412;50.802;4.350;2023-02-21T14:16:58;9.10;99.90
22491;DHT22;11412;50.802;4.350;2023-02-21T14:22:16;9.40;99.90
22491;DHT22;11412;50.802;4.350;2023-02-21T14:24:47;9.30;99.90
22491;DHT22;11412;50.802;4.350;2023-02-21T14:29:41;8.80;99.90
22491;DHT22;11412;50.802;4.350;2023-02-21T14:37:33;9.30;99.90
22491;DHT22;11412;50.802;4.350;2023-02-21T14:42:57;9.00;99.90
22491;DHT22;11412;50.802;4.350;2023-02-21T15:02:38;9.00;99.90
22491;DHT22;11412;50.802;4.350;2023-02-21T15:07:52;9.00;99.90
22491;DHT22;11412;50.802;4.350;2023-02-21T15:10:26;9.00;99.90
22491;DHT22;11412;50.802;4.350;2023-02-21T15:12:55;9.00;99.90
22491;DHT22;11412;50.802;4.350;2023-02-21T15:15:32;9.00;99.90
22491;DHT22;11412;50.802;4.350;2023-02-21T15:18:10;9.00;99.90
22491;DHT22;11412;50.802;4.350;2023-02-21T15:20:41;9.00;99.90
22491;DHT22;11412;50.802;4.350;2023-02-21T15:23:20;8.90;99.90
22491;DHT22;11412;50.802;4.350;2023-02-21T15:25:58;8.90;99.90
22491;DHT22;11412;50.802;4.350;2023-02-21T15:28:29;9.00;99.90
22491;DHT22;11412;50.802;4.350;2023-02-21T15:31:02;8.90;99.90
22491;DHT22;11412;50.802;4.350;2023-02-21T15:33:41;8.90;99.90
22491;DHT22;11412;50.802;4.350;2023-02-21T15:36:17;8.80;99.90
22491;DHT22;11412;50.802;4.350;2023-02-21T15:39:04;8.80;99.90
22491;DHT22;11412;50.802;4.350;2023-02-21T15:41:40;8.90;99.90
22491;DHT22;11412;50.802;4.350;2023-02-21T15:49:23;8.80;99.90
22491;DHT22;11412;50.802;4.350;2023-02-21T15:51:50;8.80;99.90
22491;DHT22;11412;50.802;4.350;2023-02-21T15:56:41;8.90;99.90
22491;DHT22;11412;50.802;4.350;2023-02-21T15:59:16;8.90;99.90
22491;DHT22;11412;50.802;4.350;2023-02-21T16:01:42;8.90;99.90
22491;DHT22;11412;50.802;4.350;2023-02-21T16:06:51;9.20;99.90
22491;DHT22;11412;50.802;4.350;2023-02-21T16:09:29;9.10;99.90
22491;DHT22;11412;50.802;4.350;2023-02-21T16:14:45;8.60;99.90
22491;DHT22;11412;50.802;4.350;2023-02-21T16:19:41;8.80;99.90
22491;DHT22;11412;50.802;4.350;2023-02-21T16:24:37;8.80;99.90
22491;DHT22;11412;50.802;4.350;2023-02-21T16:27:12;8.80;99.90
22491;DHT22;11412;50.802;4.350;2023-02-21T16:29:39;8.80;99.90
22491;DHT22;11412;50.802;4.350;2023-02-21T16:32:05;8.70;99.90
22491;DHT22;11412;50.802;4.350;2023-02-21T16:34:32;8.80;99.90
22491;DHT22;11412;50.802;4.350;2023-02-21T16:37:02;8.80;99.90
22491;DHT22;11412;50.802;4.350;2023-02-21T16:39:29;8.60;99.90
22491;DHT22;11412;50.802;4.350;2023-02-21T16:41:55;8.60;99.90
22491;DHT22;11412;50.802;4.350;2023-02-21T16:44:21;8.60;99.90
22491;DHT22;11412;50.802;4.350;2023-02-21T16:46:49;8.60;99.90
22491;DHT22;11412;50.802;4.350;2023-02-21T16:49:15;8.50;99.90
22491;DHT22;11412;50.802;4.350;2023-02-21T16:51:41;8.50;99.90
22491;DHT22;11412;50.802;4.350;2023-02-21T16:54:08;8.50;99.90
22491;DHT22;11412;50.802;4.350;2023-02-21T16:56:37;8.40;99.90
22491;DHT22;11412;50.802;4.350;2023-02-21T16:59:07;8.20;99.90
22491;DHT22;11412;50.802;4.350;2023-02-21T17:01:33;8.10;99.90
22491;DHT22;11412;50.802;4.350;2023-02-21T17:04:01;7.90;99.90
22491;DHT22;11412;50.802;4.350;2023-02-21T17:06:29;7.80;99.90
22491;DHT22;11412;50.802;4.350;2023-02-21T17:08:55;7.80;99.90
22491;DHT22;11412;50.802;4.350;2023-02-21T17:11:24;7.70;99.90
22491;DHT22;11412;50.802;4.350;2023-02-21T17:13:50;7.70;99.90
22491;DHT22;11412;50.802;4.350;2023-02-21T17:16:17;7.60;99.90
22491;DHT22;11412;50.802;4.350;2023-02-21T17:18:43;7.50;99.90
22491;DHT22;11412;50.802;4.350;2023-02-21T17:21:09;7.30;99.90
22491;DHT22;11412;50.802;4.350;2023-02-21T17:23:35;7.30;99.90
22491;DHT22;11412;50.802;4.350;2023-02-21T17:26:00;7.30;99.90
22491;DHT22;11412;50.802;4.350;2023-02-21T17:28:26;7.30;99.90
22491;DHT22;11412;50.802;4.350;2023-02-21T17:30:52;7.20;99.90
22491;DHT22;11412;50.802;4.350;2023-02-21T17:33:18;7.20;99.90
22491;DHT22;11412;50.802;4.350;2023-02-21T17:35:43;7.10;99.90
22491;DHT22;11412;50.802;4.350;2023-02-21T17:38:09;6.90;99.90
22491;DHT22;11412;50.802;4.350;2023-02-21T17:40:35;6.90;99.90
22491;DHT22;11412;50.802;4.350;2023-02-21T17:43:00;7.00;99.90
22491;DHT22;11412;50.802;4.350;2023-02-21T17:45:27;6.90;99.90
22491;DHT22;11412;50.802;4.350;2023-02-21T17:47:53;7.10;99.90
22491;DHT22;11412;50.802;4.350;2023-02-21T17:50:19;6.80;99.90
22491;DHT22;11412;50.802;4.350;2023-02-21T17:52:45;6.80;99.90
22491;DHT22;11412;50.802;4.350;2023-02-21T17:55:18;6.60;99.90
22491;DHT22;11412;50.802;4.350;2023-02-21T17:57:44;6.50;99.90
22491;DHT22;11412;50.802;4.350;2023-02-21T18:00:16;6.50;99.90
22491;DHT22;11412;50.802;4.350;2023-02-21T18:02:45;6.50;99.90
22491;DHT22;11412;50.802;4.350;2023-02-21T18:05:11;6.40;99.90
22491;DHT22;11412;50.802;4.350;2023-02-21T18:07:37;6.40;99.90
22491;DHT22;11412;50.802;4.350;2023-02-21T18:10:03;6.30;99.90
22491;DHT22;11412;50.802;4.350;2023-02-21T18:12:30;6.20;99.90
22491;DHT22;11412;50.802;4.350;2023-02-21T18:14:58;6.10;99.90
22491;DHT22;11412;50.802;4.350;2023-02-21T18:17:24;6.20;99.90
22491;DHT22;11412;50.802;4.350;2023-02-21T18:19:49;6.10;99.90
22491;DHT22;11412;50.802;4.350;2023-02-21T18:22:15;6.00;99.90
22491;DHT22;11412;50.802;4.350;2023-02-21T18:24:41;5.90;99.90
22491;DHT22;11412;50.802;4.350;2023-02-21T18:27:07;5.80;99.90
22491;DHT22;11412;50.802;4.350;2023-02-21T18:29:33;5.80;99.90
22491;DHT22;11412;50.802;4.350;2023-02-21T18:31:58;5.80;99.90
22491;DHT22;11412;50.802;4.350;2023-02-21T18:34:24;5.70;99.90
22491;DHT22;11412;50.802;4.350;2023-02-21T18:36:51;5.80;99.90
22491;DHT22;11412;50.802;4.350;2023-02-21T18:39:20;6.00;99.90
22491;DHT22;11412;50.802;4.350;2023-02-21T18:41:47;5.90;99.90
22491;DHT22;11412;50.802;4.350;2023-02-21T18:44:13;5.80;99.90
22491;DHT22;11412;50.802;4.350;2023-02-21T18:46:38;5.70;99.90
22491;DHT22;11412;50.802;4.350;2023-02-21T18:49:09;5.80;99.90
22491;DHT22;11412;50.802;4.350;2023-02-21T18:51:35;5.70;99.90
22491;DHT22;11412;50.802;4.350;2023-02-21T18:54:02;5.90;99.90
22491;DHT22;11412;50.802;4.350;2023-02-21T18:56:28;5.80;99.90